NCAR-RAP Real-Time Weather Data

Output produced by METARs form (30 July 2016  18:41 UTC)
found at http://weather.rap.ucar.edu/surface/
 
Conditions at: KSDF observed 30 July 2016  18:24 UTC
Temperature: 29.4°C (85°F)
Dewpoint: 20.0°C (68°F) [RH = 57%]
Pressure (altimeter): 29.96 inches Hg (1014.6 mb)
Winds: from the SW (220 degrees) at 9 MPH (8 knots; 4.2 m/s)
Visibility: 8 miles (13 km)
Ceiling: 3300 feet AGL
Clouds: broken clouds at 3300 feet AGL
broken clouds at 6000 feet AGL
broken clouds at 10000 feet AGL
broken clouds at 25000 feet AGL
Present Weather: TS  (thunderstorm)
KSDF 301824Z 22008KT 8SM TS BKN033CB BKN060 BKN100 BKN250 29/20 A2996 RMK AO2 TSB24 OCNL LTGCG W TS W MOV E T02940200